Miltonvale, Kansas
Current Conditions -  °F | °C
As of 11:55 AM on Saturday 25 Oct 2014 (Local Time) from KCNK Reporting Station
Clear Clear  
Wind Chill: 71°   Ceiling: Unl
Heat Index: 71°   Visibility: 9mi
Dew Point: 61°   Wind: 8mph
Humidity: 70%   Direction: 110°ESE
Pressure: 30.08"   Gusts: NA
Location:  39.35°N, 97.45°W
Report Text: KCNK 251655Z AUTO 11007KT 9SM CLR 22/16 A3008 RMK AO2 SLP177 T02170161
Loading
Personal Weather Stations






























Interactive Weather Map
Tropical Storm Tracking
New forecast layout! Learn more

10-Day Weather Forecast

Advertisements
Track Severe Weather on mobile